createdAt,value
2023-05-06T00:00:36.716Z,92.36
2023-05-06T00:01:36.724Z,92.38
2023-05-06T00:02:36.762Z,92.40
2023-05-06T00:03:36.836Z,92.39
2023-05-06T00:04:36.697Z,92.40
2023-05-06T00:05:36.662Z,92.39
2023-05-06T00:06:36.650Z,92.39
2023-05-06T00:07:36.638Z,92.40
2023-05-06T00:08:36.669Z,92.41
2023-05-06T00:09:36.608Z,92.40
2023-05-06T00:10:36.593Z,92.40
2023-05-06T00:11:36.573Z,92.39
2023-05-06T00:12:36.595Z,92.39
2023-05-06T00:13:36.554Z,92.39
2023-05-06T00:14:36.547Z,92.39
2023-05-06T00:15:36.543Z,92.39
2023-05-06T00:16:36.565Z,92.40
2023-05-06T00:17:36.581Z,92.41
2023-05-06T00:18:36.504Z,92.40
2023-05-06T00:19:36.463Z,92.39
2023-05-06T00:20:36.479Z,92.40
2023-05-06T00:21:36.448Z,92.40
2023-05-06T00:22:36.428Z,92.39
2023-05-06T00:23:36.440Z,92.41
2023-05-06T00:24:36.403Z,92.42
2023-05-06T00:25:36.386Z,92.40
2023-05-06T00:26:36.382Z,92.42
2023-05-06T00:27:36.383Z,92.40
2023-05-06T00:28:36.357Z,92.42
2023-05-06T00:29:36.335Z,92.40
2023-05-06T00:30:36.326Z,92.40
2023-05-06T00:31:36.363Z,92.39
2023-05-06T00:32:36.328Z,92.39
2023-05-06T00:33:36.289Z,92.38
2023-05-06T00:34:36.307Z,92.36
2023-05-06T00:35:36.264Z,92.34
2023-05-06T00:36:36.280Z,92.35
2023-05-06T00:37:36.250Z,92.35
2023-05-06T00:38:36.227Z,92.36
2023-05-06T00:39:36.238Z,92.36
2023-05-06T00:40:36.198Z,92.37
2023-05-06T00:41:36.197Z,92.37
2023-05-06T00:42:36.173Z,92.38
2023-05-06T00:43:36.160Z,92.36
2023-05-06T00:44:36.162Z,92.35
2023-05-06T00:45:36.151Z,92.35
2023-05-06T00:46:36.117Z,92.34
2023-05-06T00:47:36.160Z,92.33
2023-05-06T00:48:36.132Z,92.32
2023-05-06T00:49:36.089Z,92.33
2023-05-06T00:50:36.100Z,92.32
2023-05-06T00:51:36.078Z,92.32
2023-05-06T00:52:36.065Z,92.34
2023-05-06T00:53:36.029Z,92.33
2023-05-06T00:54:36.042Z,92.31
2023-05-06T00:55:36.005Z,92.31
2023-05-06T00:56:35.992Z,92.30
2023-05-06T00:57:35.983Z,92.31
2023-05-06T00:58:35.979Z,92.31
2023-05-06T00:59:35.941Z,92.30
2023-05-06T01:00:35.998Z,92.30
2023-05-06T01:01:35.978Z,92.30
2023-05-06T01:02:46.159Z,92.30
2023-05-06T01:03:36.017Z,92.29
2023-05-06T01:04:35.964Z,92.28
2023-05-06T01:05:35.876Z,92.28
2023-05-06T01:06:35.858Z,92.28
2023-05-06T01:07:35.855Z,92.26
2023-05-06T01:08:35.833Z,92.24
2023-05-06T01:09:35.833Z,92.22
2023-05-06T01:10:35.831Z,92.18
2023-05-06T01:11:35.848Z,92.16
2023-05-06T01:12:35.845Z,92.16
2023-05-06T01:13:35.781Z,92.14
2023-05-06T01:14:35.781Z,92.14
2023-05-06T01:15:35.752Z,92.14
2023-05-06T01:16:35.757Z,92.13
2023-05-06T01:17:35.771Z,92.15
2023-05-06T01:18:35.727Z,92.13
2023-05-06T01:19:35.709Z,92.15
2023-05-06T01:20:35.734Z,92.15
2023-05-06T01:21:35.711Z,92.14
2023-05-06T01:22:35.681Z,92.13
2023-05-06T01:23:35.675Z,92.12
2023-05-06T01:24:35.645Z,92.13
2023-05-06T01:25:35.636Z,92.13
2023-05-06T01:26:35.613Z,92.13
2023-05-06T01:27:35.605Z,92.14
2023-05-06T01:28:35.578Z,92.14
2023-05-06T01:29:35.583Z,92.16
2023-05-06T01:30:35.553Z,92.15
2023-05-06T01:31:35.574Z,92.14
2023-05-06T01:32:35.573Z,92.15
2023-05-06T01:33:35.523Z,92.13
2023-05-06T01:34:35.516Z,92.10
2023-05-06T01:35:35.494Z,92.10
2023-05-06T01:36:35.477Z,92.08
2023-05-06T01:37:35.473Z,92.08
2023-05-06T01:38:35.451Z,92.08
2023-05-06T01:39:35.453Z,92.07
2023-05-06T01:40:35.429Z,92.05
2023-05-06T01:41:35.438Z,92.04
2023-05-06T01:42:35.416Z,92.03
2023-05-06T01:43:35.398Z,92.03
2023-05-06T01:44:35.398Z,92.04
2023-05-06T01:45:35.383Z,92.05
2023-05-06T01:46:35.471Z,92.03
2023-05-06T01:47:35.396Z,92.04
2023-05-06T01:48:35.329Z,92.04
2023-05-06T01:49:35.329Z,92.06
2023-05-06T01:50:35.326Z,92.05
2023-05-06T01:51:35.344Z,92.05
2023-05-06T01:52:35.289Z,92.04
2023-05-06T01:53:35.280Z,92.06
2023-05-06T01:54:35.257Z,92.04
2023-05-06T01:55:35.251Z,92.04
2023-05-06T01:56:35.234Z,92.02
2023-05-06T01:57:35.216Z,92.01
2023-05-06T01:58:35.213Z,92.00
2023-05-06T01:59:35.207Z,91.97
2023-05-06T02:00:35.481Z,91.92
2023-05-06T02:01:35.206Z,91.95
2023-05-06T02:02:35.234Z,91.95
2023-05-06T02:03:35.204Z,91.94
2023-05-06T02:04:35.134Z,91.97
2023-05-06T02:05:35.151Z,91.97
2023-05-06T02:06:35.106Z,91.97
2023-05-06T02:07:35.100Z,91.97
2023-05-06T02:08:35.087Z,91.98
2023-05-06T02:09:35.059Z,91.97
2023-05-06T02:10:35.084Z,91.96
2023-05-06T02:11:35.105Z,91.96
2023-05-06T02:12:35.114Z,91.92
2023-05-06T02:13:35.078Z,91.93
2023-05-06T02:14:35.010Z,91.90
2023-05-06T02:15:35.032Z,91.89
2023-05-06T02:16:35.166Z,91.89
2023-05-06T02:17:35.011Z,91.87
2023-05-06T02:18:34.961Z,91.86
2023-05-06T02:19:34.964Z,91.87
2023-05-06T02:20:34.948Z,91.87
2023-05-06T02:21:34.926Z,91.84
2023-05-06T02:22:34.894Z,91.86
2023-05-06T02:23:34.905Z,91.81
2023-05-06T02:24:34.880Z,91.82
2023-05-06T02:25:34.874Z,91.80
2023-05-06T02:26:34.867Z,91.81
2023-05-06T02:27:34.907Z,91.81
2023-05-06T02:41:27.256Z,91.39
2023-05-06T02:49:42.939Z,91.98
2023-05-06T02:49:48.950Z,91.92
2023-05-06T02:50:49.126Z,91.87
2023-05-06T02:51:48.805Z,91.81
2023-05-06T02:54:36.421Z,91.37
2023-05-06T02:55:39.556Z,91.88
2023-05-06T02:57:00.846Z,91.85
2023-05-06T03:14:41.782Z,91.30
2023-05-06T04:25:13.387Z,90.97
2023-05-06T04:25:19.591Z,91.49
2023-05-06T04:26:19.254Z,91.43
2023-05-06T04:27:19.192Z,91.41
2023-05-06T04:28:19.216Z,91.40
2023-05-06T04:29:19.231Z,91.39
2023-05-06T04:30:19.232Z,91.38
2023-05-06T04:31:19.153Z,91.39
2023-05-06T04:32:19.483Z,91.36
2023-05-06T04:34:57.974Z,90.89
2023-05-06T04:36:59.136Z,90.85
2023-05-06T04:37:59.632Z,91.34
2023-05-06T04:38:59.402Z,91.31
2023-05-06T04:41:33.261Z,90.84
2023-05-06T04:42:44.998Z,91.32
2023-05-06T04:43:34.199Z,91.30
2023-05-06T04:45:59.756Z,90.83
2023-05-06T04:47:00.554Z,91.31
2023-05-06T04:48:00.399Z,91.28
2023-05-06T04:49:00.287Z,91.26
2023-05-06T04:50:00.299Z,91.26
2023-05-06T04:51:12.682Z,91.26
2023-05-06T04:52:00.347Z,91.24
2023-05-06T04:53:00.233Z,91.22
2023-05-06T04:54:00.208Z,91.22
2023-05-06T04:55:00.255Z,91.21
2023-05-06T04:56:00.165Z,91.22
2023-05-06T04:57:00.781Z,91.23
2023-05-06T04:58:00.199Z,91.20
2023-05-06T04:59:10.267Z,91.19
2023-05-06T05:00:00.324Z,91.22
2023-05-06T05:01:00.253Z,91.23
2023-05-06T05:02:00.224Z,91.24
2023-05-06T05:03:00.300Z,91.25
2023-05-06T05:04:00.619Z,91.25
2023-05-06T05:05:00.142Z,91.25
2023-05-06T05:06:00.070Z,91.24
2023-05-06T05:07:00.243Z,91.24
2023-05-06T05:08:00.115Z,91.23
2023-05-06T05:09:00.019Z,91.26
2023-05-06T05:10:00.014Z,91.23
2023-05-06T05:11:10.411Z,91.26
2023-05-06T05:12:00.064Z,91.27
2023-05-06T05:13:00.130Z,91.30
2023-05-06T05:14:01.892Z,91.29
2023-05-06T05:14:59.933Z,91.32
2023-05-06T05:15:59.905Z,91.30
2023-05-06T05:16:59.980Z,91.32
2023-05-06T05:17:59.944Z,91.31
2023-05-06T05:19:01.574Z,91.32
2023-05-06T05:19:59.902Z,91.32
2023-05-06T05:20:59.880Z,91.28
2023-05-06T05:21:59.881Z,91.26
2023-05-06T05:22:59.799Z,91.27
2023-05-06T05:23:59.821Z,91.28
2023-05-06T05:24:59.803Z,91.30
2023-05-06T05:26:11.857Z,91.30
2023-05-06T05:27:07.657Z,91.29
2023-05-06T05:27:59.855Z,91.30
2023-05-06T05:28:59.827Z,91.26
2023-05-06T05:29:59.737Z,91.26
2023-05-06T05:30:59.887Z,91.26
2023-05-06T05:31:59.668Z,91.24
2023-05-06T05:32:59.746Z,91.26
2023-05-06T05:33:59.626Z,91.27
2023-05-06T05:34:59.644Z,91.27
2023-05-06T05:35:59.630Z,91.29
2023-05-06T05:36:59.622Z,91.28
2023-05-06T05:37:59.578Z,91.28
2023-05-06T05:38:59.587Z,91.30
2023-05-06T05:39:59.564Z,91.31
2023-05-06T05:40:59.594Z,91.30
2023-05-06T05:41:59.563Z,91.32
2023-05-06T05:42:59.573Z,91.32
2023-05-06T05:43:59.514Z,91.35
2023-05-06T05:44:59.536Z,91.35
2023-05-06T05:45:59.499Z,91.34
2023-05-06T05:46:59.493Z,91.31
2023-05-06T05:47:59.548Z,91.30
2023-05-06T05:48:59.459Z,91.30
2023-05-06T05:49:59.426Z,91.30
2023-05-06T05:50:59.430Z,91.30
2023-05-06T05:51:59.435Z,91.27
2023-05-06T05:52:59.385Z,91.27
2023-05-06T05:53:59.375Z,91.27
2023-05-06T05:54:59.409Z,91.25
2023-05-06T05:55:59.367Z,91.24
2023-05-06T05:56:59.351Z,91.27
2023-05-06T05:57:59.328Z,91.29
2023-05-06T05:58:59.320Z,91.30
2023-05-06T05:59:59.292Z,91.28
2023-05-06T06:00:59.389Z,91.30
2023-05-06T06:01:59.292Z,91.29
2023-05-06T06:02:59.426Z,91.31
2023-05-06T06:03:59.507Z,91.31
2023-05-06T06:04:59.285Z,91.31
2023-05-06T06:05:59.253Z,91.30
2023-05-06T06:06:59.219Z,91.28
2023-05-06T06:07:59.563Z,91.29
2023-05-06T06:08:59.209Z,91.29
2023-05-06T06:09:59.187Z,91.28
2023-05-06T06:10:59.216Z,91.29
2023-05-06T06:11:59.175Z,91.30
2023-05-06T06:12:59.169Z,91.31
2023-05-06T06:13:59.150Z,91.32
2023-05-06T06:14:59.126Z,91.31
2023-05-06T06:15:59.192Z,91.32
2023-05-06T06:16:59.073Z,91.32
2023-05-06T06:17:59.175Z,91.32
2023-05-06T06:18:59.072Z,91.33
2023-05-06T06:19:59.056Z,91.33
2023-05-06T06:20:59.029Z,91.31
2023-05-06T06:21:59.562Z,91.30
2023-05-06T06:22:59.000Z,91.30
2023-05-06T06:23:58.981Z,91.28
2023-05-06T06:24:58.984Z,91.29
2023-05-06T06:25:59.004Z,91.31
2023-05-06T06:26:58.958Z,91.29
2023-05-06T06:27:58.947Z,91.27
2023-05-06T06:28:58.945Z,91.27
2023-05-06T06:29:58.907Z,91.28
2023-05-06T06:30:58.906Z,91.29
2023-05-06T06:31:58.973Z,91.27
2023-05-06T06:32:58.913Z,91.30
2023-05-06T06:33:58.877Z,91.30
2023-05-06T06:34:58.871Z,91.29
2023-05-06T06:35:58.828Z,91.30
2023-05-06T06:36:58.840Z,91.31
2023-05-06T06:37:58.819Z,91.31
2023-05-06T06:38:58.820Z,91.31
2023-05-06T06:39:58.767Z,91.32
2023-05-06T06:40:58.777Z,91.33
2023-05-06T06:41:58.758Z,91.33
2023-05-06T06:42:58.780Z,91.34
2023-05-06T06:43:58.724Z,91.34
2023-05-06T06:44:58.716Z,91.36
2023-05-06T06:45:58.841Z,91.37
2023-05-06T06:46:58.701Z,91.37
2023-05-06T06:47:58.665Z,91.37
2023-05-06T06:48:58.645Z,91.38
2023-05-06T06:49:58.652Z,91.40
2023-05-06T06:50:58.660Z,91.40
2023-05-06T06:51:58.627Z,91.40
2023-05-06T06:52:58.607Z,91.42
2023-05-06T06:53:58.603Z,91.41
2023-05-06T06:54:58.642Z,91.42
2023-05-06T06:55:58.590Z,91.41
2023-05-06T06:56:58.564Z,91.41
2023-05-06T06:57:58.545Z,91.41
2023-05-06T06:58:58.562Z,91.39
2023-05-06T06:59:58.516Z,91.39
2023-05-06T07:00:58.548Z,91.37
2023-05-06T07:01:58.503Z,91.36
2023-05-06T07:02:58.502Z,91.36
2023-05-06T07:03:58.488Z,91.35
2023-05-06T07:04:58.460Z,91.37
2023-05-06T07:05:58.443Z,91.38
2023-05-06T07:06:58.408Z,91.38
2023-05-06T07:07:58.414Z,91.36
2023-05-06T07:08:58.388Z,91.39
2023-05-06T07:09:58.366Z,91.39
2023-05-06T07:10:58.409Z,91.40
2023-05-06T07:11:58.389Z,91.39
2023-05-06T07:12:58.400Z,91.42
2023-05-06T07:13:58.320Z,91.43
2023-05-06T07:14:58.330Z,91.43
2023-05-06T07:15:58.317Z,91.44
2023-05-06T07:16:58.283Z,91.45
2023-05-06T07:17:58.341Z,91.47
2023-05-06T07:18:58.249Z,91.47
2023-05-06T07:19:58.249Z,91.46
2023-05-06T07:20:58.248Z,91.47
2023-05-06T07:21:58.229Z,91.45
2023-05-06T07:22:58.224Z,91.47
2023-05-06T07:23:58.179Z,91.47
2023-05-06T07:24:58.175Z,91.47
2023-05-06T07:25:58.149Z,91.49
2023-05-06T07:26:58.174Z,91.46
2023-05-06T07:27:58.139Z,91.43
2023-05-06T07:28:58.134Z,91.39
2023-05-06T07:29:58.123Z,91.40
2023-05-06T07:30:58.115Z,91.40
2023-05-06T07:31:58.083Z,91.38
2023-05-06T07:32:58.138Z,91.33
2023-05-06T07:33:58.061Z,91.27
2023-05-06T07:34:58.052Z,91.23
2023-05-06T07:35:58.022Z,91.20
2023-05-06T07:36:58.033Z,91.21
2023-05-06T07:37:58.010Z,91.22
2023-05-06T07:38:58.011Z,91.21
2023-05-06T07:39:57.976Z,91.24
2023-05-06T07:40:57.970Z,91.27
2023-05-06T07:41:57.948Z,91.28
2023-05-06T07:42:57.936Z,91.28
2023-05-06T07:43:57.928Z,91.28
2023-05-06T07:44:57.924Z,91.27
2023-05-06T07:45:57.998Z,91.27
2023-05-06T07:46:58.101Z,91.31
2023-05-06T07:47:57.906Z,91.31
2023-05-06T07:48:57.890Z,91.31
2023-05-06T07:49:57.866Z,91.31
2023-05-06T07:50:57.840Z,91.23
2023-05-06T07:51:57.856Z,91.20
2023-05-06T07:52:57.809Z,91.20
2023-05-06T07:53:57.806Z,91.16
2023-05-06T07:54:57.803Z,91.15
2023-05-06T07:55:57.770Z,91.14
2023-05-06T07:56:57.791Z,91.12
2023-05-06T07:57:57.732Z,91.13
2023-05-06T07:58:57.744Z,91.14
2023-05-06T07:59:57.748Z,91.14
2023-05-06T08:00:57.719Z,91.15
2023-05-06T08:01:57.690Z,91.09
2023-05-06T08:02:57.899Z,91.03
2023-05-06T08:03:57.908Z,91.01
2023-05-06T08:04:57.738Z,90.99
2023-05-06T08:05:57.689Z,90.93
2023-05-06T08:06:57.666Z,90.90
2023-05-06T08:07:57.633Z,90.85
2023-05-06T08:08:57.613Z,90.85
2023-05-06T08:09:57.586Z,90.84
2023-05-06T08:10:57.571Z,90.82
2023-05-06T08:11:57.567Z,90.80
2023-05-06T08:12:57.581Z,90.78
2023-05-06T08:13:57.554Z,90.71
2023-05-06T08:14:57.575Z,90.64
2023-05-06T08:15:57.517Z,90.60
2023-05-06T08:16:57.511Z,90.55
2023-05-06T08:17:58.797Z,90.47
2023-05-06T08:18:57.489Z,90.43
2023-05-06T08:19:57.459Z,90.41
2023-05-06T08:20:57.481Z,90.42
2023-05-06T08:21:57.510Z,90.39
2023-05-06T08:22:57.452Z,90.33
2023-05-06T08:23:57.416Z,90.30
2023-05-06T08:24:57.404Z,90.29
2023-05-06T08:25:57.403Z,90.28
2023-05-06T08:26:57.406Z,90.30
2023-05-06T08:27:57.384Z,90.29
2023-05-06T08:28:57.353Z,90.29
2023-05-06T08:30:03.846Z,90.27
2023-05-06T08:30:57.318Z,90.25
2023-05-06T08:31:57.418Z,90.26
2023-05-06T08:32:57.343Z,90.28
2023-05-06T08:33:57.288Z,90.29
2023-05-06T08:34:57.299Z,90.31
2023-05-06T08:35:57.260Z,90.31
2023-05-06T08:36:57.256Z,90.30
2023-05-06T08:37:57.244Z,90.27
2023-05-06T08:38:57.230Z,90.25
2023-05-06T08:39:59.286Z,90.15
2023-05-06T08:40:57.202Z,90.11
2023-05-06T08:41:57.192Z,90.04
2023-05-06T08:42:57.173Z,90.03
2023-05-06T08:43:57.189Z,90.00
2023-05-06T08:44:57.169Z,89.89
2023-05-06T08:45:57.254Z,89.78
2023-05-06T08:46:57.135Z,89.60
2023-05-06T08:47:57.120Z,89.55
2023-05-06T08:48:57.092Z,89.42
2023-05-06T08:49:57.082Z,89.32
2023-05-06T08:50:57.069Z,89.24
2023-05-06T08:51:57.063Z,89.24
2023-05-06T08:52:57.040Z,89.12
2023-05-06T08:53:57.032Z,89.04
2023-05-06T08:54:57.041Z,89.04
2023-05-06T08:55:57.003Z,88.99
2023-05-06T08:56:56.985Z,88.90
2023-05-06T08:57:56.990Z,88.82
2023-05-06T08:58:56.997Z,88.71
2023-05-06T08:59:56.951Z,88.72
2023-05-06T09:00:57.021Z,88.66
2023-05-06T09:01:56.967Z,88.56
2023-05-06T09:02:57.047Z,88.62
2023-05-06T09:03:56.921Z,88.60
2023-05-06T09:04:56.943Z,88.53
2023-05-06T09:05:56.885Z,88.57
2023-05-06T09:06:56.861Z,88.31
2023-05-06T09:07:56.856Z,88.13
2023-05-06T09:08:56.861Z,87.97
2023-05-06T09:09:56.850Z,88.01
2023-05-06T09:10:56.816Z,87.99
2023-05-06T09:11:56.807Z,87.98
2023-05-06T09:12:56.807Z,87.86
2023-05-06T09:13:56.776Z,87.80
2023-05-06T09:14:56.767Z,87.71
2023-05-06T09:15:56.754Z,87.71
2023-05-06T09:16:56.781Z,87.83
2023-05-06T09:17:56.765Z,87.79
2023-05-06T09:18:56.729Z,87.70
2023-05-06T09:19:56.688Z,87.63
2023-05-06T09:20:57.740Z,87.70
2023-05-06T09:21:56.683Z,87.65
2023-05-06T09:22:56.659Z,87.57
2023-05-06T09:23:56.646Z,87.45
2023-05-06T09:24:56.725Z,87.30
2023-05-06T09:25:56.633Z,87.25
2023-05-06T09:26:56.625Z,87.24
2023-05-06T09:27:56.669Z,87.28
2023-05-06T09:28:56.583Z,87.23
2023-05-06T09:29:56.570Z,87.11
2023-05-06T09:30:56.617Z,86.91
2023-05-06T09:31:56.546Z,86.33
2023-05-06T09:32:56.628Z,86.19
2023-05-06T09:33:56.514Z,86.21
2023-05-06T09:34:56.518Z,86.31
2023-05-06T09:35:56.498Z,86.35
2023-05-06T09:36:56.490Z,86.21
2023-05-06T09:37:56.489Z,85.96
2023-05-06T09:38:56.515Z,85.88
2023-05-06T09:39:56.433Z,85.92
2023-05-06T09:40:56.438Z,86.04
2023-05-06T09:41:56.436Z,86.17
2023-05-06T09:42:56.409Z,86.06
2023-05-06T09:43:56.393Z,85.59
2023-05-06T09:44:56.394Z,85.46
2023-05-06T09:45:56.382Z,85.63
2023-05-06T09:46:56.358Z,85.60
2023-05-06T09:47:56.400Z,85.64
2023-05-06T09:48:56.329Z,85.82
2023-05-06T09:49:56.307Z,85.93
2023-05-06T09:50:56.294Z,85.65
2023-05-06T09:51:56.297Z,85.18
2023-05-06T09:52:56.271Z,84.71
2023-05-06T09:53:56.287Z,84.72
2023-05-06T09:54:56.242Z,84.35
2023-05-06T09:55:56.224Z,84.38
2023-05-06T09:56:56.233Z,83.83
2023-05-06T09:57:56.205Z,83.89
2023-05-06T09:58:56.181Z,84.10
2023-05-06T09:59:56.168Z,84.45
2023-05-06T10:00:56.160Z,84.28
2023-05-06T10:01:56.188Z,84.00
2023-05-06T10:02:56.237Z,84.05
2023-05-06T10:03:56.269Z,84.36
2023-05-06T10:04:56.295Z,84.73
2023-05-06T10:05:56.095Z,84.76
2023-05-06T10:06:56.090Z,84.66
2023-05-06T10:07:56.074Z,84.17
2023-05-06T10:08:56.057Z,83.99
2023-05-06T10:09:56.040Z,83.70
2023-05-06T10:10:56.040Z,83.83
2023-05-06T10:11:56.018Z,84.16
2023-05-06T10:12:56.045Z,84.12
2023-05-06T10:13:55.988Z,84.22
2023-05-06T10:14:56.011Z,84.21
2023-05-06T10:15:56.003Z,84.38
2023-05-06T10:16:55.963Z,84.49
2023-05-06T10:17:55.989Z,84.44
2023-05-06T10:18:55.966Z,84.29
2023-05-06T10:19:55.901Z,84.33
2023-05-06T10:20:55.917Z,84.29
2023-05-06T10:21:55.878Z,84.33
2023-05-06T10:22:56.047Z,84.45
2023-05-06T10:23:55.866Z,84.48
2023-05-06T10:24:55.841Z,84.36
2023-05-06T10:25:55.827Z,82.94
2023-05-06T10:26:55.808Z,82.53
2023-05-06T10:27:55.815Z,82.71
2023-05-06T10:28:55.782Z,82.61
2023-05-06T10:29:55.757Z,82.30
2023-05-06T10:30:55.753Z,82.65
2023-05-06T10:31:55.793Z,82.66
2023-05-06T10:32:55.790Z,82.91
2023-05-06T10:33:55.716Z,82.94
2023-05-06T10:34:55.721Z,82.99
2023-05-06T10:35:55.697Z,82.19
2023-05-06T10:36:55.672Z,81.94
2023-05-06T10:37:55.698Z,81.45
2023-05-06T10:38:55.637Z,81.53
2023-05-06T10:39:55.613Z,81.63
2023-05-06T10:40:55.624Z,81.97
2023-05-06T10:41:55.592Z,82.25
2023-05-06T10:42:55.590Z,82.24
2023-05-06T10:43:55.589Z,81.83
2023-05-06T10:44:55.557Z,82.02
2023-05-06T10:45:55.575Z,81.16
2023-05-06T10:46:55.548Z,80.68
2023-05-06T10:47:55.574Z,80.78
2023-05-06T10:48:55.505Z,81.04
2023-05-06T10:49:55.480Z,81.24
2023-05-06T10:50:55.478Z,81.55
2023-05-06T10:51:55.456Z,81.18
2023-05-06T10:52:55.452Z,80.29
2023-05-06T10:53:55.436Z,79.84
2023-05-06T10:54:55.427Z,80.17
2023-05-06T10:55:55.413Z,80.09
2023-05-06T10:56:55.429Z,80.31
2023-05-06T10:57:55.396Z,80.28
2023-05-06T10:58:55.379Z,79.77
2023-05-06T10:59:55.400Z,79.58
2023-05-06T11:00:55.382Z,78.88
2023-05-06T11:01:55.323Z,79.29
2023-05-06T11:02:55.408Z,79.66
2023-05-06T11:03:55.333Z,79.88
2023-05-06T11:04:55.277Z,80.23
2023-05-06T11:05:55.275Z,80.16
2023-05-06T11:06:55.357Z,79.27
2023-05-06T11:07:55.248Z,79.24
2023-05-06T11:08:55.241Z,79.12
2023-05-06T11:09:55.237Z,78.54
2023-05-06T11:10:55.204Z,77.94
2023-05-06T11:11:55.187Z,77.82
2023-05-06T11:12:55.229Z,78.05
2023-05-06T11:13:55.172Z,77.77
2023-05-06T11:14:55.141Z,77.29
2023-05-06T11:15:55.144Z,76.98
2023-05-06T11:16:55.176Z,77.51
2023-05-06T11:17:55.203Z,78.08
2023-05-06T11:18:55.103Z,78.24
2023-05-06T11:19:55.089Z,77.26
2023-05-06T11:20:55.092Z,76.50
2023-05-06T11:21:55.052Z,76.85
2023-05-06T11:22:55.070Z,77.18
2023-05-06T11:23:55.075Z,77.24
2023-05-06T11:24:55.015Z,77.03
2023-05-06T11:25:55.001Z,77.46
2023-05-06T11:26:54.991Z,77.33
2023-05-06T11:27:55.002Z,77.36
2023-05-06T11:28:54.975Z,76.89
2023-05-06T11:29:54.950Z,76.45
2023-05-06T11:30:54.999Z,76.69
2023-05-06T11:31:54.919Z,75.17
2023-05-06T11:32:54.933Z,75.93
2023-05-06T11:33:54.903Z,75.52
2023-05-06T11:34:54.904Z,75.99
2023-05-06T11:35:54.867Z,75.99
2023-05-06T11:36:54.857Z,74.55
2023-05-06T11:37:54.851Z,75.29
2023-05-06T11:38:54.832Z,74.73
2023-05-06T11:39:54.846Z,75.88
2023-05-06T11:40:54.788Z,76.16
2023-05-06T11:41:54.786Z,74.93
2023-05-06T11:42:54.762Z,74.84
2023-05-06T11:43:54.779Z,75.72
2023-05-06T11:44:54.759Z,75.41
2023-05-06T11:45:54.774Z,75.14
2023-05-06T11:46:54.735Z,74.70
2023-05-06T11:47:54.837Z,75.15
2023-05-06T11:48:54.685Z,75.99
2023-05-06T11:49:54.694Z,75.71
2023-05-06T11:50:54.655Z,75.25
2023-05-06T11:51:54.669Z,75.12
2023-05-06T11:52:54.632Z,75.04
2023-05-06T11:53:54.613Z,75.22
2023-05-06T11:54:54.654Z,75.15
2023-05-06T11:55:54.593Z,73.91
2023-05-06T11:56:54.587Z,74.33
2023-05-06T11:57:54.593Z,74.97
2023-05-06T11:58:54.564Z,74.74
2023-05-06T11:59:54.570Z,74.58
2023-05-06T12:00:54.541Z,74.40
2023-05-06T12:01:54.516Z,73.45
2023-05-06T12:02:54.643Z,74.40
2023-05-06T12:03:54.628Z,74.00
2023-05-06T12:04:54.544Z,74.18
2023-05-06T12:05:54.474Z,73.91
2023-05-06T12:06:54.438Z,73.33
2023-05-06T12:07:54.433Z,73.12
2023-05-06T12:08:54.417Z,73.02
2023-05-06T12:09:54.435Z,72.79
2023-05-06T12:10:54.430Z,73.32
2023-05-06T12:11:54.378Z,74.05
2023-05-06T12:12:54.379Z,74.13
2023-05-06T12:13:54.966Z,73.49
2023-05-06T12:14:54.358Z,72.37
2023-05-06T12:15:54.361Z,72.17
2023-05-06T12:16:56.048Z,72.77
2023-05-06T12:17:54.327Z,73.28
2023-05-06T12:18:54.292Z,72.34
2023-05-06T12:19:54.279Z,72.00
2023-05-06T12:20:54.258Z,72.00
2023-05-06T12:21:54.245Z,71.14
2023-05-06T12:22:55.476Z,71.84
2023-05-06T12:23:54.238Z,70.15
2023-05-06T12:24:54.227Z,70.21
2023-05-06T12:25:54.202Z,68.75
2023-05-06T12:26:54.200Z,69.16
2023-05-06T12:27:54.947Z,69.76
2023-05-06T12:28:54.174Z,69.38
2023-05-06T12:29:54.171Z,70.76
2023-05-06T12:30:54.119Z,71.49
2023-05-06T12:31:54.156Z,72.01
2023-05-06T12:32:54.193Z,73.12
2023-05-06T12:33:56.089Z,73.88
2023-05-06T12:34:54.104Z,72.53
2023-05-06T12:35:54.060Z,72.24
2023-05-06T12:36:54.092Z,73.44
2023-05-06T12:37:54.052Z,71.42
2023-05-06T12:38:54.035Z,71.10
2023-05-06T12:39:55.679Z,70.95
2023-05-06T12:40:54.013Z,69.80
2023-05-06T12:41:53.997Z,71.11
2023-05-06T12:42:53.969Z,71.03
2023-05-06T12:43:53.969Z,70.97
2023-05-06T12:44:53.953Z,70.55
2023-05-06T12:45:55.076Z,71.05
2023-05-06T12:46:53.909Z,71.06
2023-05-06T12:47:53.938Z,71.42
2023-05-06T12:48:53.900Z,71.24
2023-05-06T12:49:53.889Z,71.55
2023-05-06T12:50:53.904Z,70.20
2023-05-06T12:51:53.854Z,69.96
2023-05-06T12:52:53.845Z,70.90
2023-05-06T12:53:53.853Z,70.47
2023-05-06T12:54:53.813Z,71.09
2023-05-06T12:55:53.807Z,70.66
2023-05-06T12:56:53.806Z,70.63
2023-05-06T12:57:54.609Z,70.54
2023-05-06T12:58:53.773Z,70.99
2023-05-06T12:59:53.787Z,70.78
2023-05-06T13:00:53.777Z,70.26
2023-05-06T13:01:53.727Z,70.38
2023-05-06T13:02:53.806Z,70.88
2023-05-06T13:03:53.693Z,71.51
2023-05-06T13:04:53.695Z,71.51
2023-05-06T13:05:53.684Z,71.01
2023-05-06T13:06:53.667Z,71.70
2023-05-06T13:07:53.661Z,72.15
2023-05-06T13:08:53.624Z,71.99
2023-05-06T13:09:53.652Z,71.47
2023-05-06T13:10:53.608Z,70.51
2023-05-06T13:11:53.592Z,70.34
2023-05-06T13:12:53.635Z,70.43
2023-05-06T13:13:53.577Z,70.09
2023-05-06T13:14:53.548Z,70.11
2023-05-06T13:15:53.555Z,70.48
2023-05-06T13:16:53.578Z,70.77
2023-05-06T13:17:53.649Z,71.17
2023-05-06T13:18:53.505Z,70.68
2023-05-06T13:19:53.496Z,69.36
2023-05-06T13:20:53.502Z,69.47
2023-05-06T13:21:53.470Z,69.46
2023-05-06T13:22:55.054Z,69.46
2023-05-06T13:23:53.438Z,70.08
2023-05-06T13:24:53.420Z,70.90
2023-05-06T13:26:03.737Z,71.78
2023-05-06T13:26:53.415Z,69.39
2023-05-06T13:27:53.377Z,68.60
2023-05-06T13:28:53.365Z,68.15
2023-05-06T13:29:53.363Z,68.34
2023-05-06T13:30:53.371Z,68.29
2023-05-06T13:31:53.340Z,69.57
2023-05-06T13:32:53.436Z,69.26
2023-05-06T13:33:53.310Z,69.42
2023-05-06T13:34:53.305Z,69.49
2023-05-06T13:35:53.302Z,69.66
2023-05-06T13:36:53.273Z,69.88
2023-05-06T13:37:53.281Z,69.72
2023-05-06T13:38:53.267Z,67.89
2023-05-06T13:39:53.234Z,67.08
2023-05-06T13:40:53.224Z,68.48
2023-05-06T13:41:53.208Z,69.16
2023-05-06T13:42:53.184Z,69.38
2023-05-06T13:43:53.171Z,71.24
2023-05-06T13:44:53.163Z,72.45
2023-05-06T13:45:53.217Z,74.14
2023-05-06T13:46:53.246Z,77.01
2023-05-06T13:47:53.253Z,78.42
2023-05-06T13:48:53.125Z,78.47
2023-05-06T13:49:53.142Z,76.38
2023-05-06T13:50:53.114Z,75.52
2023-05-06T13:51:53.085Z,72.50
2023-05-06T13:52:53.085Z,75.74
2023-05-06T13:53:53.047Z,73.97
2023-05-06T13:54:53.023Z,73.81
2023-05-06T13:55:53.056Z,76.11
2023-05-06T13:56:53.009Z,76.93
2023-05-06T13:57:53.016Z,75.96
2023-05-06T13:58:53.030Z,75.04
2023-05-06T13:59:52.988Z,75.52
2023-05-06T14:00:52.953Z,75.75
2023-05-06T14:01:53.036Z,75.76
2023-05-06T14:02:52.947Z,74.89
2023-05-06T14:03:52.950Z,75.09
2023-05-06T14:04:53.003Z,73.40
2023-05-06T14:05:52.923Z,72.95
2023-05-06T14:06:52.919Z,73.87
2023-05-06T14:07:52.872Z,73.24
2023-05-06T14:08:52.846Z,73.49
2023-05-06T14:09:52.844Z,73.31
2023-05-06T14:10:52.856Z,73.85
2023-05-06T14:11:52.833Z,73.55
2023-05-06T14:12:52.872Z,71.35
2023-05-06T14:13:52.780Z,71.32
2023-05-06T14:14:52.763Z,72.68
2023-05-06T14:15:52.792Z,73.27
2023-05-06T14:16:52.833Z,72.92
2023-05-06T14:17:52.857Z,72.82
2023-05-06T14:18:52.778Z,72.22
2023-05-06T14:19:52.729Z,72.48
2023-05-06T14:20:52.738Z,72.05
2023-05-06T14:21:52.704Z,72.08
2023-05-06T14:22:52.918Z,71.26
2023-05-06T14:23:52.666Z,71.20
2023-05-06T14:24:52.673Z,70.94
2023-05-06T14:25:52.683Z,70.72
2023-05-06T14:26:52.680Z,72.16
2023-05-06T14:27:52.617Z,74.09
2023-05-06T14:28:52.610Z,73.44
2023-05-06T14:29:52.587Z,72.54
2023-05-06T14:30:52.591Z,72.86
2023-05-06T14:31:52.604Z,73.95
2023-05-06T14:32:52.590Z,74.72
2023-05-06T14:33:52.528Z,75.44
2023-05-06T14:34:52.513Z,75.77
2023-05-06T14:35:52.518Z,75.94
2023-05-06T14:36:52.509Z,75.49
2023-05-06T14:37:52.524Z,70.65
2023-05-06T14:38:52.461Z,70.05
2023-05-06T14:39:52.464Z,69.52
2023-05-06T14:40:52.443Z,69.83
2023-05-06T14:41:52.435Z,69.45
2023-05-06T14:42:52.445Z,68.32
2023-05-06T14:43:52.410Z,66.42
2023-05-06T14:44:52.398Z,67.18